sensor_id;sensor_type;location;lat;lon;timestamp;pressure;altitude;pressure_sealevel;temperature;humidity
51261;BME280;61705;46.228;24.812;2022-10-16T00:01:59;98252.69;;;5.19;87.74
51261;BME280;61705;46.228;24.812;2022-10-16T00:04:31;98248.59;;;5.01;87.91
51261;BME280;61705;46.228;24.812;2022-10-16T00:06:58;98250.47;;;4.93;88.66
51261;BME280;61705;46.228;24.812;2022-10-16T00:09:25;98259.16;;;4.96;88.31
51261;BME280;61705;46.228;24.812;2022-10-16T00:11:55;98259.84;;;5.08;88.12
51261;BME280;61705;46.228;24.812;2022-10-16T00:14:22;98251.22;;;5.03;87.96
51261;BME280;61705;46.228;24.812;2022-10-16T00:16:49;98254.66;;;5.05;87.85
51261;BME280;61705;46.228;24.812;2022-10-16T00:19:23;98261.59;;;5.09;87.44
51261;BME280;61705;46.228;24.812;2022-10-16T00:21:50;98262.50;;;5.05;87.68
51261;BME280;61705;46.228;24.812;2022-10-16T00:24:21;98260.72;;;5.10;87.73
51261;BME280;61705;46.228;24.812;2022-10-16T00:26:50;98264.19;;;5.09;87.90
51261;BME280;61705;46.228;24.812;2022-10-16T00:29:17;98271.28;;;5.04;88.24
51261;BME280;61705;46.228;24.812;2022-10-16T00:31:44;98280.06;;;4.98;88.57
51261;BME280;61705;46.228;24.812;2022-10-16T00:34:13;98279.16;;;5.01;88.60
51261;BME280;61705;46.228;24.812;2022-10-16T00:36:43;98277.34;;;5.07;88.72
51261;BME280;61705;46.228;24.812;2022-10-16T00:39:17;98281.66;;;5.10;88.87
51261;BME280;61705;46.228;24.812;2022-10-16T00:41:45;98279.06;;;5.10;88.72
51261;BME280;61705;46.228;24.812;2022-10-16T00:44:49;98280.78;;;5.11;88.73
51261;BME280;61705;46.228;24.812;2022-10-16T00:47:32;98277.19;;;5.18;88.24
51261;BME280;61705;46.228;24.812;2022-10-16T00:50:16;98280.06;;;4.99;88.39
51261;BME280;61705;46.228;24.812;2022-10-16T00:52:46;98282.56;;;5.07;88.53
51261;BME280;61705;46.228;24.812;2022-10-16T00:55:13;98280.00;;;5.04;88.50
51261;BME280;61705;46.228;24.812;2022-10-16T00:57:44;98274.72;;;5.07;88.70
51261;BME280;61705;46.228;24.812;2022-10-16T01:00:16;98279.81;;;5.18;88.45
51261;BME280;61705;46.228;24.812;2022-10-16T01:02:43;98271.81;;;5.26;88.13
51261;BME280;61705;46.228;24.812;2022-10-16T01:05:10;98276.19;;;5.25;88.13
51261;BME280;61705;46.228;24.812;2022-10-16T01:08:01;98279.75;;;5.19;88.41
51261;BME280;61705;46.228;24.812;2022-10-16T01:11:14;98277.97;;;5.25;88.32
51261;BME280;61705;46.228;24.812;2022-10-16T01:13:42;98283.47;;;5.05;88.88
51261;BME280;61705;46.228;24.812;2022-10-16T01:16:22;98282.72;;;4.96;89.81
51261;BME280;61705;46.228;24.812;2022-10-16T01:22:08;98292.31;;;4.97;90.76
51261;BME280;61705;46.228;24.812;2022-10-16T01:24:40;98290.59;;;4.96;91.19
51261;BME280;61705;46.228;24.812;2022-10-16T01:27:30;98294.13;;;4.91;91.52
51261;BME280;61705;46.228;24.812;2022-10-16T01:30:18;98290.66;;;4.90;91.49
51261;BME280;61705;46.228;24.812;2022-10-16T01:32:57;98294.25;;;4.82;91.18
51261;BME280;61705;46.228;24.812;2022-10-16T01:35:35;98293.38;;;4.81;90.78
51261;BME280;61705;46.228;24.812;2022-10-16T01:41:20;98287.47;;;4.64;90.63
51261;BME280;61705;46.228;24.812;2022-10-16T01:46:34;98283.97;;;4.65;90.88
51261;BME280;61705;46.228;24.812;2022-10-16T01:49:03;98289.34;;;4.56;91.38
51261;BME280;61705;46.228;24.812;2022-10-16T01:51:32;98291.94;;;4.59;91.73
51261;BME280;61705;46.228;24.812;2022-10-16T01:54:02;98293.69;;;4.58;92.40
51261;BME280;61705;46.228;24.812;2022-10-16T01:56:32;98288.53;;;4.49;92.69
51261;BME280;61705;46.228;24.812;2022-10-16T01:59:09;98288.53;;;4.49;92.98
51261;BME280;61705;46.228;24.812;2022-10-16T02:01:40;98299.75;;;4.60;93.43
51261;BME280;61705;46.228;24.812;2022-10-16T02:04:26;98286.59;;;4.66;93.52
51261;BME280;61705;46.228;24.812;2022-10-16T02:06:55;98294.41;;;4.69;93.85
51261;BME280;61705;46.228;24.812;2022-10-16T02:09:22;98290.06;;;4.67;94.25
51261;BME280;61705;46.228;24.812;2022-10-16T02:11:51;98298.75;;;4.70;94.21
51261;BME280;61705;46.228;24.812;2022-10-16T02:14:19;98300.53;;;4.67;94.45
51261;BME280;61705;46.228;24.812;2022-10-16T02:16:47;98298.88;;;4.60;94.32
51261;BME280;61705;46.228;24.812;2022-10-16T02:19:15;98309.41;;;4.55;94.02
51261;BME280;61705;46.228;24.812;2022-10-16T02:21:54;98313.81;;;4.50;94.58
51261;BME280;61705;46.228;24.812;2022-10-16T02:24:47;98312.09;;;4.47;94.50
51261;BME280;61705;46.228;24.812;2022-10-16T02:29:52;98319.00;;;4.56;94.39
51261;BME280;61705;46.228;24.812;2022-10-16T02:32:23;98323.50;;;4.45;94.73
51261;BME280;61705;46.228;24.812;2022-10-16T02:34:52;98313.09;;;4.36;95.29
51261;BME280;61705;46.228;24.812;2022-10-16T02:37:22;98319.13;;;4.44;95.15
51261;BME280;61705;46.228;24.812;2022-10-16T02:39:53;98313.91;;;4.42;95.20
51261;BME280;61705;46.228;24.812;2022-10-16T02:42:20;98317.41;;;4.40;95.24
51261;BME280;61705;46.228;24.812;2022-10-16T02:44:50;98322.69;;;4.37;94.96
51261;BME280;61705;46.228;24.812;2022-10-16T02:47:17;98325.38;;;4.29;94.91
51261;BME280;61705;46.228;24.812;2022-10-16T02:49:44;98324.53;;;4.28;94.93
51261;BME280;61705;46.228;24.812;2022-10-16T02:52:10;98325.50;;;4.18;94.81
51261;BME280;61705;46.228;24.812;2022-10-16T02:54:37;98322.97;;;4.08;94.29
51261;BME280;61705;46.228;24.812;2022-10-16T02:57:03;98323.97;;;3.93;94.46
51261;BME280;61705;46.228;24.812;2022-10-16T02:59:30;98323.97;;;3.93;94.48
51261;BME280;61705;46.228;24.812;2022-10-16T03:01:57;98324.81;;;3.98;94.63
51261;BME280;61705;46.228;24.812;2022-10-16T03:04:24;98323.09;;;3.92;94.39
51261;BME280;61705;46.228;24.812;2022-10-16T03:06:50;98331.75;;;3.99;94.22
51261;BME280;61705;46.228;24.812;2022-10-16T03:09:19;98331.81;;;3.94;94.01
51261;BME280;61705;46.228;24.812;2022-10-16T03:11:45;98330.97;;;3.89;93.94
51261;BME280;61705;46.228;24.812;2022-10-16T03:14:12;98333.53;;;3.97;93.89
51261;BME280;61705;46.228;24.812;2022-10-16T03:16:39;98334.41;;;3.97;94.12
51261;BME280;61705;46.228;24.812;2022-10-16T03:19:09;98340.47;;;4.01;93.69
51261;BME280;61705;46.228;24.812;2022-10-16T03:21:41;98342.16;;;4.07;93.86
51261;BME280;61705;46.228;24.812;2022-10-16T03:24:11;98348.28;;;4.02;93.94
51261;BME280;61705;46.228;24.812;2022-10-16T03:26:38;98350.91;;;4.04;93.82
51261;BME280;61705;46.228;24.812;2022-10-16T03:29:04;98359.59;;;4.06;93.99
51261;BME280;61705;46.228;24.812;2022-10-16T03:31:32;98362.16;;;4.12;94.00
51261;BME280;61705;46.228;24.812;2022-10-16T03:33:58;98358.69;;;4.12;93.74
51261;BME280;61705;46.228;24.812;2022-10-16T03:36:27;98365.72;;;4.02;94.04
51261;BME280;61705;46.228;24.812;2022-10-16T03:38:54;98362.25;;;4.00;94.01
51261;BME280;61705;46.228;24.812;2022-10-16T03:41:22;98363.16;;;3.97;94.14
51261;BME280;61705;46.228;24.812;2022-10-16T03:43:49;98365.78;;;3.97;94.08
51261;BME280;61705;46.228;24.812;2022-10-16T03:46:16;98372.72;;;3.98;94.19
51261;BME280;61705;46.228;24.812;2022-10-16T03:48:45;98370.16;;;3.92;94.42
51261;BME280;61705;46.228;24.812;2022-10-16T03:51:14;98376.25;;;3.93;94.33
51261;BME280;61705;46.228;24.812;2022-10-16T03:53:41;98373.66;;;3.91;94.42
51261;BME280;61705;46.228;24.812;2022-10-16T03:56:09;98370.16;;;3.94;94.33
51261;BME280;61705;46.228;24.812;2022-10-16T03:58:36;98371.91;;;3.92;94.56
51261;BME280;61705;46.228;24.812;2022-10-16T04:01:03;98378.03;;;3.91;94.67
51261;BME280;61705;46.228;24.812;2022-10-16T04:03:32;98379.78;;;3.90;94.83
51261;BME280;61705;46.228;24.812;2022-10-16T04:05:59;98384.16;;;3.90;94.67
51261;BME280;61705;46.228;24.812;2022-10-16T04:08:26;98385.91;;;3.85;94.52
51261;BME280;61705;46.228;24.812;2022-10-16T04:10:56;98387.66;;;3.84;94.71
51261;BME280;61705;46.228;24.812;2022-10-16T04:13:23;98391.16;;;3.83;94.28
51261;BME280;61705;46.228;24.812;2022-10-16T04:15:53;98386.78;;;3.87;94.20
51261;BME280;61705;46.228;24.812;2022-10-16T04:18:19;98385.03;;;3.87;94.29
51261;BME280;61705;46.228;24.812;2022-10-16T04:20:47;98386.78;;;3.82;94.10
51261;BME280;61705;46.228;24.812;2022-10-16T04:23:23;98386.84;;;3.76;93.77
51261;BME280;61705;46.228;24.812;2022-10-16T04:25:50;98393.88;;;3.68;94.14
51261;BME280;61705;46.228;24.812;2022-10-16T04:28:17;98399.13;;;3.63;94.20
51261;BME280;61705;46.228;24.812;2022-10-16T04:30:44;98397.38;;;3.65;94.05
51261;BME280;61705;46.228;24.812;2022-10-16T04:33:13;98395.69;;;3.60;94.23
51261;BME280;61705;46.228;24.812;2022-10-16T04:35:40;98408.69;;;3.64;94.43
51261;BME280;61705;46.228;24.812;2022-10-16T04:38:09;98407.88;;;3.54;94.43
51261;BME280;61705;46.228;24.812;2022-10-16T04:40:36;98402.66;;;3.59;94.34
51261;BME280;61705;46.228;24.812;2022-10-16T04:43:04;98402.59;;;3.62;94.11
51261;BME280;61705;46.228;24.812;2022-10-16T04:45:31;98412.25;;;3.54;94.14
51261;BME280;61705;46.228;24.812;2022-10-16T04:47:59;98414.84;;;3.54;94.00
51261;BME280;61705;46.228;24.812;2022-10-16T04:50:26;98419.25;;;3.44;93.86
51261;BME280;61705;46.228;24.812;2022-10-16T04:52:52;98415.78;;;3.41;94.12
51261;BME280;61705;46.228;24.812;2022-10-16T04:55:19;98427.13;;;3.38;94.21
51261;BME280;61705;46.228;24.812;2022-10-16T04:57:49;98429.72;;;3.49;94.01
51261;BME280;61705;46.228;24.812;2022-10-16T05:00:16;98428.81;;;3.53;93.98
51261;BME280;61705;46.228;24.812;2022-10-16T05:02:44;98429.69;;;3.53;93.75
51261;BME280;61705;46.228;24.812;2022-10-16T05:05:13;98432.31;;;3.47;93.74
51261;BME280;61705;46.228;24.812;2022-10-16T05:07:40;98441.94;;;3.36;94.06
51261;BME280;61705;46.228;24.812;2022-10-16T05:10:07;98445.44;;;3.33;93.91
51261;BME280;61705;46.228;24.812;2022-10-16T05:12:34;98447.16;;;3.41;94.06
51261;BME280;61705;46.228;24.812;2022-10-16T05:15:06;98455.81;;;3.50;93.76
51261;BME280;61705;46.228;24.812;2022-10-16T05:17:33;98459.38;;;3.36;93.67
51261;BME280;61705;46.228;24.812;2022-10-16T05:20:00;98461.97;;;3.34;93.40
51261;BME280;61705;46.228;24.812;2022-10-16T05:22:29;98462.00;;;3.32;93.95
51261;BME280;61705;46.228;24.812;2022-10-16T05:24:56;98464.56;;;3.42;93.70
51261;BME280;61705;46.228;24.812;2022-10-16T05:27:23;98463.69;;;3.46;93.65
51261;BME280;61705;46.228;24.812;2022-10-16T05:29:54;98466.22;;;3.55;93.60
51261;BME280;61705;46.228;24.812;2022-10-16T05:32:23;98468.06;;;3.39;93.81
51261;BME280;61705;46.228;24.812;2022-10-16T05:34:50;98461.06;;;3.47;93.90
51261;BME280;61705;46.228;24.812;2022-10-16T05:37:22;98470.63;;;3.50;93.78
51261;BME280;61705;46.228;24.812;2022-10-16T05:39:50;98475.81;;;3.58;93.58
51261;BME280;61705;46.228;24.812;2022-10-16T05:42:16;98465.34;;;3.61;93.36
51261;BME280;61705;46.228;24.812;2022-10-16T05:44:43;98468.84;;;3.60;93.29
51261;BME280;61705;46.228;24.812;2022-10-16T05:47:12;98462.69;;;3.68;93.11
51261;BME280;61705;46.228;24.812;2022-10-16T05:49:39;98464.41;;;3.77;92.77
51261;BME280;61705;46.228;24.812;2022-10-16T05:52:06;98463.53;;;3.76;93.04
51261;BME280;61705;46.228;24.812;2022-10-16T05:54:33;98467.88;;;3.76;92.70
51261;BME280;61705;46.228;24.812;2022-10-16T05:57:00;98473.97;;;3.75;92.92
51261;BME280;61705;46.228;24.812;2022-10-16T05:59:26;98482.75;;;3.66;92.50
51261;BME280;61705;46.228;24.812;2022-10-16T06:01:55;98483.63;;;3.61;92.59
51261;BME280;61705;46.228;24.812;2022-10-16T06:04:22;98494.06;;;3.70;92.84
51261;BME280;61705;46.228;24.812;2022-10-16T06:06:50;98491.44;;;3.73;92.64
51261;BME280;61705;46.228;24.812;2022-10-16T06:09:17;98488.78;;;3.77;92.42
51261;BME280;61705;46.228;24.812;2022-10-16T06:11:44;98490.53;;;3.77;92.33
51261;BME280;61705;46.228;24.812;2022-10-16T06:14:11;98488.81;;;3.74;92.35
51261;BME280;61705;46.228;24.812;2022-10-16T06:16:41;98493.97;;;3.85;91.99
51261;BME280;61705;46.228;24.812;2022-10-16T06:19:08;98501.81;;;3.82;92.11
51261;BME280;61705;46.228;24.812;2022-10-16T06:21:41;98493.06;;;3.91;91.83
51261;BME280;61705;46.228;24.812;2022-10-16T06:24:09;98491.31;;;3.91;91.55
51261;BME280;61705;46.228;24.812;2022-10-16T06:26:37;98497.47;;;3.81;91.46
51261;BME280;61705;46.228;24.812;2022-10-16T06:29:08;98491.38;;;3.82;91.69
51261;BME280;61705;46.228;24.812;2022-10-16T06:31:35;98494.81;;;3.92;91.55
51261;BME280;61705;46.228;24.812;2022-10-16T06:34:05;98487.75;;;4.00;91.80
51261;BME280;61705;46.228;24.812;2022-10-16T06:36:59;98479.88;;;4.09;91.40
51261;BME280;61705;46.228;24.812;2022-10-16T06:39:28;98483.34;;;4.14;91.28
51261;BME280;61705;46.228;24.812;2022-10-16T06:42:02;98487.66;;;4.18;90.91
51261;BME280;61705;46.228;24.812;2022-10-16T06:44:34;98491.09;;;4.26;90.57
51261;BME280;61705;46.228;24.812;2022-10-16T06:47:14;98499.81;;;4.25;90.93
51261;BME280;61705;46.228;24.812;2022-10-16T06:49:44;98502.31;;;4.42;90.89
51261;BME280;61705;46.228;24.812;2022-10-16T06:52:23;98503.97;;;4.53;90.18
51261;BME280;61705;46.228;24.812;2022-10-16T06:54:51;98505.75;;;4.49;90.01
51261;BME280;61705;46.228;24.812;2022-10-16T06:57:36;98516.19;;;4.52;89.73
51261;BME280;61705;46.228;24.812;2022-10-16T07:00:10;98518.59;;;4.78;89.84
51261;BME280;61705;46.228;24.812;2022-10-16T07:02:51;98517.69;;;4.82;89.71
51261;BME280;61705;46.228;24.812;2022-10-16T07:05:30;98517.56;;;4.96;89.48
51261;BME280;61705;46.228;24.812;2022-10-16T07:08:19;98518.28;;;5.10;89.32
51261;BME280;61705;46.228;24.812;2022-10-16T07:11:03;98521.72;;;5.17;88.84
51261;BME280;61705;46.228;24.812;2022-10-16T07:16:25;98518.16;;;5.24;88.73
51261;BME280;61705;46.228;24.812;2022-10-16T07:18:54;98520.63;;;5.38;88.32
51261;BME280;61705;46.228;24.812;2022-10-16T07:21:30;98524.88;;;5.48;88.33
51261;BME280;61705;46.228;24.812;2022-10-16T07:23:59;98517.69;;;5.65;87.73
51261;BME280;61705;46.228;24.812;2022-10-16T07:26:39;98517.78;;;5.58;87.89
51261;BME280;61705;46.228;24.812;2022-10-16T07:29:12;98519.63;;;5.46;88.33
51261;BME280;61705;46.228;24.812;2022-10-16T07:31:40;98521.31;;;5.52;88.87
51261;BME280;61705;46.228;24.812;2022-10-16T07:34:31;98511.81;;;5.43;88.65
51261;BME280;61705;46.228;24.812;2022-10-16T07:36:58;98516.28;;;5.35;89.00
51261;BME280;61705;46.228;24.812;2022-10-16T07:39:25;98513.63;;;5.38;89.62
51261;BME280;61705;46.228;24.812;2022-10-16T07:41:54;98511.78;;;5.48;89.60
51261;BME280;61705;46.228;24.812;2022-10-16T07:44:23;98516.03;;;5.58;89.44
51261;BME280;61705;46.228;24.812;2022-10-16T07:46:50;98523.69;;;5.74;89.35
51261;BME280;61705;46.228;24.812;2022-10-16T07:52:55;98515.47;;;6.03;88.67
51261;BME280;61705;46.228;24.812;2022-10-16T07:55:21;98512.69;;;6.12;88.83
51261;BME280;61705;46.228;24.812;2022-10-16T07:57:54;98514.25;;;6.25;88.69
51261;BME280;61705;46.228;24.812;2022-10-16T08:00:21;98496.50;;;6.43;88.67
51261;BME280;61705;46.228;24.812;2022-10-16T08:02:57;98501.59;;;6.53;88.34
51261;BME280;61705;46.228;24.812;2022-10-16T08:05:41;98499.63;;;6.68;87.97
51261;BME280;61705;46.228;24.812;2022-10-16T08:08:16;98506.41;;;6.81;88.07
51261;BME280;61705;46.228;24.812;2022-10-16T08:10:44;98503.59;;;6.92;87.71
51261;BME280;61705;46.228;24.812;2022-10-16T08:13:15;98510.31;;;7.06;87.72
51261;BME280;61705;46.228;24.812;2022-10-16T08:16:21;98505.56;;;7.27;87.51
51261;BME280;61705;46.228;24.812;2022-10-16T08:18:50;98510.66;;;7.34;86.91
51261;BME280;61705;46.228;24.812;2022-10-16T08:21:21;98502.50;;;7.48;86.40
51261;BME280;61705;46.228;24.812;2022-10-16T08:24:06;98500.44;;;7.64;86.12
51261;BME280;61705;46.228;24.812;2022-10-16T08:26:33;98502.00;;;7.74;85.99
51261;BME280;61705;46.228;24.812;2022-10-16T08:29:03;98492.16;;;7.82;85.77
51261;BME280;61705;46.228;24.812;2022-10-16T08:31:42;98498.81;;;8.00;85.71
51261;BME280;61705;46.228;24.812;2022-10-16T08:34:13;98492.53;;;8.06;85.36
51261;BME280;61705;46.228;24.812;2022-10-16T08:36:40;98501.19;;;8.11;85.37
51261;BME280;61705;46.228;24.812;2022-10-16T08:39:07;98499.25;;;8.19;84.89
51261;BME280;61705;46.228;24.812;2022-10-16T08:43:06;98494.47;;;8.37;84.54
51261;BME280;61705;46.228;24.812;2022-10-16T08:48:29;98485.13;;;8.62;83.88
51261;BME280;61705;46.228;24.812;2022-10-16T08:50:49;98488.28;;;8.76;83.21
51261;BME280;61705;46.228;24.812;2022-10-16T08:53:31;98493.41;;;8.81;83.11
51261;BME280;61705;46.228;24.812;2022-10-16T08:56:06;98492.34;;;8.88;82.96
51261;BME280;61705;46.228;24.812;2022-10-16T08:58:33;98497.44;;;8.96;83.16
51261;BME280;61705;46.228;24.812;2022-10-16T09:01:03;98489.19;;;9.08;82.71
51261;BME280;61705;46.228;24.812;2022-10-16T09:03:54;98493.19;;;9.23;81.71
51261;BME280;61705;46.228;24.812;2022-10-16T09:14:56;98499.47;;;9.50;81.25
51261;BME280;61705;46.228;24.812;2022-10-16T09:23:19;98483.97;;;10.00;79.72
51261;BME280;61705;46.228;24.812;2022-10-16T09:26:16;98483.38;;;10.18;78.46
51261;BME280;61705;46.228;24.812;2022-10-16T09:28:52;98487.63;;;10.24;78.79
51261;BME280;61705;46.228;24.812;2022-10-16T09:31:23;98476.06;;;10.30;78.60
51261;BME280;61705;46.228;24.812;2022-10-16T09:34:01;98474.44;;;10.52;78.18
51261;BME280;61705;46.228;24.812;2022-10-16T09:36:40;98473.97;;;10.66;77.63
51261;BME280;61705;46.228;24.812;2022-10-16T09:39:10;98477.34;;;10.71;77.33
51261;BME280;61705;46.228;24.812;2022-10-16T09:41:44;98479.84;;;10.76;77.35
51261;BME280;61705;46.228;24.812;2022-10-16T09:44:26;98481.53;;;10.78;77.13
51261;BME280;61705;46.228;24.812;2022-10-16T09:49:37;98483.22;;;11.06;76.81
51261;BME280;61705;46.228;24.812;2022-10-16T09:52:12;98474.16;;;11.13;76.47
51261;BME280;61705;46.228;24.812;2022-10-16T09:54:52;98475.09;;;11.12;76.38
51261;BME280;61705;46.228;24.812;2022-10-16T10:04:39;98472.88;;;11.48;75.15
51261;BME280;61705;46.228;24.812;2022-10-16T10:07:38;98465.09;;;11.69;73.93
51261;BME280;61705;46.228;24.812;2022-10-16T10:10:21;98473.41;;;11.83;74.13
51261;BME280;61705;46.228;24.812;2022-10-16T10:12:54;98469.38;;;11.96;73.50
51261;BME280;61705;46.228;24.812;2022-10-16T10:15:24;98466.50;;;12.02;73.16
51261;BME280;61705;46.228;24.812;2022-10-16T10:17:57;98460.53;;;11.97;72.65
51261;BME280;61705;46.228;24.812;2022-10-16T10:20:42;98465.22;;;11.89;73.47
51261;BME280;61705;46.228;24.812;2022-10-16T10:23:26;98444.72;;;12.18;71.73
51261;BME280;61705;46.228;24.812;2022-10-16T10:26:05;98443.53;;;12.25;71.67
51261;BME280;61705;46.228;24.812;2022-10-16T10:32:28;98450.63;;;12.24;72.14
51261;BME280;61705;46.228;24.812;2022-10-16T10:46:17;98429.25;;;12.71;68.85
51261;BME280;61705;46.228;24.812;2022-10-16T10:55:26;98428.06;;;13.19;63.89
51261;BME280;61705;46.228;24.812;2022-10-16T11:06:55;98414.16;;;13.35;63.81
51261;BME280;61705;46.228;24.812;2022-10-16T11:09:37;98415.59;;;13.42;64.47
51261;BME280;61705;46.228;24.812;2022-10-16T11:12:26;98415.09;;;13.34;64.36
51261;BME280;61705;46.228;24.812;2022-10-16T11:20:50;98412.09;;;13.60;64.37
51261;BME280;61705;46.228;24.812;2022-10-16T11:23:33;98409.59;;;13.76;62.11
51261;BME280;61705;46.228;24.812;2022-10-16T11:26:28;98402.22;;;13.83;63.09
51261;BME280;61705;46.228;24.812;2022-10-16T11:29:07;98399.91;;;13.94;62.13
51261;BME280;61705;46.228;24.812;2022-10-16T11:31:50;98401.34;;;14.01;60.54
51261;BME280;61705;46.228;24.812;2022-10-16T11:34:47;98403.56;;;14.10;61.03
51261;BME280;61705;46.228;24.812;2022-10-16T11:37:32;98399.53;;;14.02;61.39
51261;BME280;61705;46.228;24.812;2022-10-16T11:40:21;98403.38;;;13.96;61.88
51261;BME280;61705;46.228;24.812;2022-10-16T11:42:58;98402.03;;;14.05;61.88
51261;BME280;61705;46.228;24.812;2022-10-16T11:45:49;98390.59;;;13.85;62.44
51261;BME280;61705;46.228;24.812;2022-10-16T11:51:11;98384.91;;;13.93;60.84
51261;BME280;61705;46.228;24.812;2022-10-16T11:56:43;98390.53;;;13.68;61.33
51261;BME280;61705;46.228;24.812;2022-10-16T12:04:59;98381.53;;;14.62;55.92
51261;BME280;61705;46.228;24.812;2022-10-16T12:07:46;98384.91;;;14.83;56.17
51261;BME280;61705;46.228;24.812;2022-10-16T12:10:30;98390.22;;;14.83;56.65
51261;BME280;61705;46.228;24.812;2022-10-16T12:16:30;98388.44;;;14.83;57.53
51261;BME280;61705;46.228;24.812;2022-10-16T12:18:50;98395.72;;;14.80;58.11
51261;BME280;61705;46.228;24.812;2022-10-16T12:21:43;98389.69;;;14.59;57.64
51261;BME280;61705;46.228;24.812;2022-10-16T12:26:55;98395.28;;;14.53;59.16
51261;BME280;61705;46.228;24.812;2022-10-16T12:31:55;98396.91;;;14.57;59.32
51261;BME280;61705;46.228;24.812;2022-10-16T12:34:28;98398.22;;;14.83;58.55
51261;BME280;61705;46.228;24.812;2022-10-16T12:37:18;98401.34;;;15.08;57.58
51261;BME280;61705;46.228;24.812;2022-10-16T12:39:47;98400.56;;;15.06;58.05
51261;BME280;61705;46.228;24.812;2022-10-16T12:44:54;98406.44;;;14.78;59.30
51261;BME280;61705;46.228;24.812;2022-10-16T12:49:56;98410.59;;;14.84;59.74
51261;BME280;61705;46.228;24.812;2022-10-16T12:52:37;98408.84;;;14.83;60.02
51261;BME280;61705;46.228;24.812;2022-10-16T12:55:04;98406.75;;;14.72;60.53
51261;BME280;61705;46.228;24.812;2022-10-16T13:00:09;98415.94;;;14.84;60.69
51261;BME280;61705;46.228;24.812;2022-10-16T13:10:58;98411.91;;;14.75;61.36
51261;BME280;61705;46.228;24.812;2022-10-16T13:13:40;98405.19;;;14.68;61.32
51261;BME280;61705;46.228;24.812;2022-10-16T13:16:16;98415.38;;;14.77;60.82
51261;BME280;61705;46.228;24.812;2022-10-16T13:19:04;98411.91;;;14.75;60.72
51261;BME280;61705;46.228;24.812;2022-10-16T13:29:24;98413.25;;;14.84;61.62
51261;BME280;61705;46.228;24.812;2022-10-16T13:31:58;98421.84;;;14.89;61.72
51261;BME280;61705;46.228;24.812;2022-10-16T13:34:30;98414.88;;;14.86;61.60
51261;BME280;61705;46.228;24.812;2022-10-16T13:37:16;98416.44;;;14.90;61.68
51261;BME280;61705;46.228;24.812;2022-10-16T13:39:42;98413.78;;;14.90;62.15
51261;BME280;61705;46.228;24.812;2022-10-16T13:42:10;98421.84;;;15.24;61.44
51261;BME280;61705;46.228;24.812;2022-10-16T13:44:48;98414.28;;;15.49;60.99
51261;BME280;61705;46.228;24.812;2022-10-16T13:49:42;98422.00;;;15.71;60.40
51261;BME280;61705;46.228;24.812;2022-10-16T13:52:18;98426.75;;;15.82;60.24
51261;BME280;61705;46.228;24.812;2022-10-16T13:54:46;98423.63;;;15.90;59.79
51261;BME280;61705;46.228;24.812;2022-10-16T13:57:14;98424.69;;;15.87;59.59
51261;BME280;61705;46.228;24.812;2022-10-16T13:59:53;98425.06;;;15.97;59.38
51261;BME280;61705;46.228;24.812;2022-10-16T14:04:54;98421.63;;;16.10;58.16
51261;BME280;61705;46.228;24.812;2022-10-16T14:10:27;98428.81;;;16.40;57.83
51261;BME280;61705;46.228;24.812;2022-10-16T14:12:58;98439.03;;;16.64;57.07
51261;BME280;61705;46.228;24.812;2022-10-16T14:15:25;98437.41;;;16.77;56.68
51261;BME280;61705;46.228;24.812;2022-10-16T14:17:55;98440.91;;;16.93;56.14
51261;BME280;61705;46.228;24.812;2022-10-16T14:20:25;98434.91;;;17.04;56.21
51261;BME280;61705;46.228;24.812;2022-10-16T14:25:47;98422.75;;;17.43;54.79
51261;BME280;61705;46.228;24.812;2022-10-16T14:28:27;98432.13;;;17.50;54.34
51261;BME280;61705;46.228;24.812;2022-10-16T14:30:55;98431.19;;;17.65;53.97
51261;BME280;61705;46.228;24.812;2022-10-16T14:39:28;98436.47;;;17.81;54.08
51261;BME280;61705;46.228;24.812;2022-10-16T14:42:14;98444.91;;;17.73;54.41
51261;BME280;61705;46.228;24.812;2022-10-16T14:44:43;98445.28;;;17.67;54.40
51261;BME280;61705;46.228;24.812;2022-10-16T14:47:12;98446.09;;;17.84;54.53
51261;BME280;61705;46.228;24.812;2022-10-16T14:49:41;98445.50;;;17.64;54.60
51261;BME280;61705;46.228;24.812;2022-10-16T14:52:19;98450.38;;;17.72;54.62
51261;BME280;61705;46.228;24.812;2022-10-16T14:54:49;98454.94;;;17.70;54.39
51261;BME280;61705;46.228;24.812;2022-10-16T14:57:24;98453.00;;;17.43;55.45
51261;BME280;61705;46.228;24.812;2022-10-16T15:00:08;98454.16;;;17.39;55.33
51261;BME280;61705;46.228;24.812;2022-10-16T15:02:36;98459.28;;;17.14;56.18
51261;BME280;61705;46.228;24.812;2022-10-16T15:07:45;98464.94;;;16.77;57.58
51261;BME280;61705;46.228;24.812;2022-10-16T15:10:13;98460.91;;;16.23;58.91
51261;BME280;61705;46.228;24.812;2022-10-16T15:12:40;98467.72;;;15.46;61.71
51261;BME280;61705;46.228;24.812;2022-10-16T15:18:03;98480.94;;;13.85;67.82
51261;BME280;61705;46.228;24.812;2022-10-16T15:20:31;98484.63;;;13.62;68.38
51261;BME280;61705;46.228;24.812;2022-10-16T15:23:36;98492.25;;;13.29;69.06
51261;BME280;61705;46.228;24.812;2022-10-16T15:26:18;98494.84;;;13.10;70.28
51261;BME280;61705;46.228;24.812;2022-10-16T15:28:45;98493.94;;;12.89;72.20
51261;BME280;61705;46.228;24.812;2022-10-16T15:31:11;98495.19;;;12.80;72.58
51261;BME280;61705;46.228;24.812;2022-10-16T15:33:38;98497.28;;;12.72;72.81
51261;BME280;61705;46.228;24.812;2022-10-16T15:36:14;98503.03;;;12.62;73.14
51261;BME280;61705;46.228;24.812;2022-10-16T15:38:41;98505.13;;;12.53;73.47
51261;BME280;61705;46.228;24.812;2022-10-16T15:41:07;98506.91;;;12.53;73.63
51261;BME280;61705;46.228;24.812;2022-10-16T15:43:34;98509.31;;;12.59;74.07
51261;BME280;61705;46.228;24.812;2022-10-16T15:46:02;98511.47;;;12.49;74.46
51261;BME280;61705;46.228;24.812;2022-10-16T15:48:30;98511.94;;;12.37;74.81
51261;BME280;61705;46.228;24.812;2022-10-16T15:51:12;98515.22;;;12.22;74.98
51261;BME280;61705;46.228;24.812;2022-10-16T15:53:41;98520.84;;;12.13;75.20
51261;BME280;61705;46.228;24.812;2022-10-16T15:56:12;98521.06;;;12.06;75.25